Time;durP1;ratioP1;P1;durP2;ratioP2;P2;SDS_P1;SDS_P2;PMS_P1;PMS_P2;Temp;Humidity;BMP_temperature;BMP_pressure;BME280_temperature;BME280_humidity;BME280_pressure;Samples;Min_cycle;Max_cycle;Signal;HPM_P1;HPM_P2
2022/02/14 00:01:05;;;;;;;0.00;0.00;;;;;19.90;100248.00;;;;5138203;28;20042;-77
2022/02/14 00:03:35;;;;;;;;;;;;;19.90;100248.00;;;;5139490;28;20031;-77
2022/02/14 00:06:04;;;;;;;0.00;0.00;;;;;20.00;100247.00;;;;5137608;28;19923;-77
2022/02/14 00:08:35;;;;;;;0.00;0.00;;;;;20.00;100235.00;;;;5125058;28;20032;-77
2022/02/14 00:11:05;;;;;;;0.00;0.00;;;;;20.10;100235.00;;;;5131175;28;20036;-78
2022/02/14 00:13:35;;;;;;;0.00;0.00;;;;;20.10;100251.00;;;;5115764;28;20130;-77
2022/02/14 00:16:05;;;;;;;0.00;0.00;;;;;20.00;100247.00;;;;5111413;28;20139;-78
2022/02/14 00:18:34;;;;;;;0.00;0.00;;;;;19.80;100240.00;;;;5111058;28;20036;-77
2022/02/14 00:21:04;;;;;;;0.00;0.00;;;;;19.60;100262.00;;;;5108665;28;20043;-77
2022/02/14 00:23:33;;;;;;;0.00;0.00;;;;;19.40;100249.00;;;;5111808;27;20625;-77
2022/02/14 00:26:03;;;;;;;0.00;0.00;;;;;19.30;100265.00;;;;5110477;27;20062;-77
2022/02/14 00:28:32;;;;;;;0.00;0.00;;;;;19.30;100257.00;;;;5131413;27;20039;-77
2022/02/14 00:31:04;;;;;;;0.00;0.00;;;;;19.20;100250.00;;;;5128303;27;20053;-77
2022/02/14 00:33:36;;;;;;;0.00;0.00;;;;;19.10;100238.00;;;;5130565;27;20050;-77
2022/02/14 00:36:06;;;;;;;0.00;0.00;;;;;19.00;100250.00;;;;5117940;27;20073;-80
2022/02/14 00:38:39;;;;;;;0.00;0.00;;;;;18.90;100278.00;;;;5108063;27;20051;-77
2022/02/14 00:41:10;;;;;;;0.00;0.00;;;;;18.90;100224.00;;;;5116639;27;20042;-78
2022/02/14 00:43:40;;;;;;;;;;;;;18.90;100271.00;;;;5118546;27;20051;-76
2022/02/14 00:46:10;;;;;;;0.00;0.00;;;;;18.90;100271.00;;;;5121248;27;20080;-77
2022/02/14 00:48:41;;;;;;;0.00;0.00;;;;;19.00;100278.00;;;;5110229;27;20048;-77
2022/02/14 00:51:14;;;;;;;0.00;0.00;;;;;19.10;100266.00;;;;5121865;27;20051;-76
2022/02/14 00:53:44;;;;;;;0.00;0.00;;;;;19.00;100264.00;;;;5131946;27;20047;-77
2022/02/14 00:56:14;;;;;;;0.00;0.00;;;;;19.00;100252.00;;;;5130889;27;20038;-77
2022/02/14 00:58:44;;;;;;;0.00;0.00;;;;;18.90;100256.00;;;;5130236;27;20050;-77
2022/02/14 01:01:14;;;;;;;0.00;0.00;;;;;18.80;100264.00;;;;5129794;27;20078;-77
2022/02/14 01:03:43;;;;;;;0.00;0.00;;;;;18.80;100238.00;;;;5129962;27;20042;-77
2022/02/14 01:06:13;;;;;;;0.00;0.00;;;;;18.70;100244.00;;;;5130282;27;20043;-77
2022/02/14 01:08:42;;;;;;;0.00;0.00;;;;;18.60;100246.00;;;;5129064;27;20043;-77
2022/02/14 01:11:13;;;;;;;0.00;0.00;;;;;18.50;100246.00;;;;5130050;27;20054;-76
2022/02/14 01:13:43;;;;;;;;;;;;;18.40;100241.00;;;;5130347;27;20039;-77
2022/02/14 01:16:12;;;;;;;0.00;0.00;;;;;18.40;100221.00;;;;5129129;27;19923;-77
2022/02/14 01:18:42;;;;;;;0.00;0.00;;;;;18.40;100231.00;;;;5115321;27;20046;-76
2022/02/14 01:21:11;;;;;;;0.00;0.00;;;;;18.40;100216.00;;;;5107231;28;20089;-78
2022/02/14 01:23:41;;;;;;;0.00;0.00;;;;;18.40;100216.00;;;;5107498;28;20400;-76
2022/02/14 01:26:10;;;;;;;0.00;0.00;;;;;18.30;100226.00;;;;5110952;28;20530;-77
2022/02/14 01:28:40;;;;;;;0.00;0.00;;;;;18.30;100234.00;;;;5107504;28;20040;-80
2022/02/14 01:31:10;;;;;;;0.00;0.00;;;;;18.20;100222.00;;;;5108849;28;20044;-77
2022/02/14 01:33:39;;;;;;;0.00;0.00;;;;;18.20;100218.00;;;;5107955;28;20112;-80
2022/02/14 01:36:08;;;;;;;0.00;0.00;;;;;18.10;100209.00;;;;5109042;28;20117;-78
2022/02/14 01:38:38;;;;;;;0.00;0.00;;;;;18.10;100235.00;;;;5109157;28;20411;-79
2022/02/14 01:41:07;;;;;;;0.00;0.00;;;;;18.10;100216.00;;;;5107556;28;20491;-79
2022/02/14 01:43:37;;;;;;;0.00;0.00;;;;;18.00;100218.00;;;;5109559;28;20506;-79
2022/02/14 01:46:06;;;;;;;0.00;0.00;;;;;18.00;100236.00;;;;5108826;28;20063;-78
2022/02/14 01:48:35;;;;;;;0.00;0.00;;;;;18.00;100230.00;;;;5113742;27;20044;-77
2022/02/14 01:51:06;;;;;;;0.00;0.00;;;;;18.00;100228.00;;;;5097730;28;20539;-78
2022/02/14 01:53:36;;;;;;;0.00;0.00;;;;;17.90;100221.00;;;;5099358;28;20046;-80
2022/02/14 01:56:06;;;;;;;0.00;0.00;;;;;17.90;100217.00;;;;5101221;28;20047;-76
2022/02/14 01:58:35;;;;;;;0.00;0.00;;;;;17.90;100210.00;;;;5107962;28;20550;-79
2022/02/14 02:01:04;;;;;;;0.00;0.00;;;;;17.90;100211.00;;;;5111365;27;20081;-79
2022/02/14 02:03:34;;;;;;;0.00;0.00;;;;;17.90;100197.00;;;;5114727;27;20057;-79
2022/02/14 02:06:07;;;;;;;0.00;0.00;;;;;17.90;100219.00;;;;5128670;27;20039;-78
2022/02/14 02:08:37;;;;;;;0.00;0.00;;;;;17.90;100192.00;;;;5129943;27;20046;-78
2022/02/14 02:13:54;;;;;;;0.00;0.00;;;;;17.90;100203.00;;;;5128598;27;20084;-80
2022/02/14 02:16:24;;;;;;;0.00;0.00;;;;;17.80;100208.00;;;;5127178;27;20074;-76
2022/02/14 02:18:53;;;;;;;0.00;0.00;;;;;17.80;100194.00;;;;5127355;27;20521;-78
2022/02/14 02:21:23;;;;;;;0.00;0.00;;;;;17.70;100194.00;;;;5129875;27;20047;-77
2022/02/14 02:23:57;;;;;;;0.00;0.00;;;;;17.70;100204.00;;;;5129061;27;20039;-77
2022/02/14 02:26:31;;;;;;;0.00;0.00;;;;;17.80;100206.00;;;;5128439;27;20534;-78
2022/02/14 02:29:01;;;;;;;0.00;0.00;;;;;17.80;100178.00;;;;5128310;27;20054;-79
2022/02/14 02:31:31;;;;;;;0.00;0.00;;;;;17.70;100198.00;;;;5127618;27;20046;-81
2022/02/14 02:34:00;;;;;;;0.00;0.00;;;;;17.70;100191.00;;;;5126541;27;20510;-80
2022/02/14 02:36:33;;;;;;;0.00;0.00;;;;;17.70;100205.00;;;;5112383;27;20035;-77
2022/02/14 02:39:03;;;;;;;0.00;0.00;;;;;17.70;100187.00;;;;5128988;27;20467;-78
2022/02/14 02:41:32;;;;;;;0.00;0.00;;;;;17.70;100200.00;;;;5128869;27;20038;-77
2022/02/14 02:44:01;;;;;;;0.00;0.00;;;;;17.70;100183.00;;;;5127919;27;20526;-78
2022/02/14 02:46:32;;;;;;;9.65;0.95;;;;;17.70;100182.00;;;;5128433;27;20501;-80
2022/02/14 02:49:17;;;;;;;0.00;0.00;;;;;17.80;100207.00;;;;5128510;27;20046;-77
2022/02/14 02:51:50;;;;;;;0.00;0.00;;;;;17.80;100191.00;;;;5127614;27;20066;-79
2022/02/14 02:54:22;;;;;;;0.00;0.00;;;;;17.80;100201.00;;;;5128287;27;20049;-76
2022/02/14 02:56:53;;;;;;;0.00;0.00;;;;;17.90;100200.00;;;;5127892;27;20043;-76
2022/02/14 02:59:26;;;;;;;0.00;0.00;;;;;18.00;100214.00;;;;5127236;27;20035;-76
2022/02/14 03:01:56;;;;;;;0.00;0.00;;;;;18.00;100186.00;;;;5128383;27;20063;-77
2022/02/14 03:04:25;;;;;;;4.75;3.40;;;;;17.90;100204.00;;;;5128595;27;20061;-77
2022/02/14 03:06:55;;;;;;;0.00;0.00;;;;;17.90;100201.00;;;;5126907;27;20415;-77
2022/02/14 03:09:25;;;;;;;0.00;0.00;;;;;17.90;100205.00;;;;5127842;27;20051;-76
2022/02/14 03:11:54;;;;;;;0.00;0.00;;;;;17.80;100200.00;;;;5127822;27;20042;-76
2022/02/14 03:14:24;;;;;;;0.00;0.00;;;;;17.80;100215.00;;;;5126616;27;20465;-75
2022/02/14 03:16:54;;;;;;;1.65;1.55;;;;;17.80;100200.00;;;;5127273;27;20046;-76
2022/02/14 03:19:23;;;;;;;0.00;0.00;;;;;17.80;100219.00;;;;5127808;27;20422;-78
2022/02/14 03:21:55;;;;;;;0.00;0.00;;;;;17.70;100201.00;;;;5127661;27;20039;-76
2022/02/14 03:24:24;;;;;;;0.00;0.00;;;;;17.70;100190.00;;;;5126667;27;20043;-76
2022/02/14 03:26:54;;;;;;;0.00;0.00;;;;;17.70;100206.00;;;;5127603;27;20039;-77
2022/02/14 03:29:24;;;;;;;0.00;0.00;;;;;17.70;100189.00;;;;5127515;27;20562;-77
2022/02/14 03:31:53;;;;;;;0.00;0.00;;;;;17.70;100188.00;;;;5127628;27;20498;-76
2022/02/14 03:34:23;;;;;;;0.00;0.00;;;;;17.60;100205.00;;;;5127340;27;20043;-80
2022/02/14 03:36:55;;;;;;;0.00;0.00;;;;;17.60;100203.00;;;;5128007;28;20051;-78
2022/02/14 03:39:24;;;;;;;0.00;0.00;;;;;17.50;100203.00;;;;5127904;27;20072;-78
2022/02/14 03:41:54;;;;;;;0.00;0.00;;;;;17.40;100193.00;;;;5127412;27;20068;-78
2022/02/14 03:44:24;;;;;;;0.00;0.00;;;;;17.40;100191.00;;;;5127761;27;20055;-76
2022/02/14 03:46:53;;;;;;;2.05;1.90;;;;;17.40;100192.00;;;;5132309;27;20374;-78
2022/02/14 03:49:23;;;;;;;0.00;0.00;;;;;17.40;100205.00;;;;5131958;27;20047;-76
2022/02/14 03:51:52;;;;;;;0.00;0.00;;;;;17.40;100183.00;;;;5131114;27;20031;-78
2022/02/14 03:54:21;;;;;;;0.00;0.00;;;;;17.40;100196.00;;;;5131904;27;20399;-78
2022/02/14 03:56:51;;;;;;;0.00;0.00;;;;;17.30;100189.00;;;;5131242;27;20459;-79
2022/02/14 03:59:21;;;;;;;0.00;0.00;;;;;17.20;100185.00;;;;5130760;27;20047;-78
2022/02/14 04:01:51;;;;;;;0.00;0.00;;;;;17.20;100197.00;;;;5131838;27;20046;-79
2022/02/14 04:04:20;;;;;;;0.00;0.00;;;;;17.30;100197.00;;;;5131357;27;20035;-77
2022/02/14 04:06:49;;;;;;;0.00;0.00;;;;;17.30;100194.00;;;;5131738;27;20070;-78
2022/02/14 04:09:19;;;;;;;0.00;0.00;;;;;17.20;100185.00;;;;5131552;27;20050;-79
2022/02/14 04:11:48;;;;;;;0.00;0.00;;;;;17.20;100173.00;;;;5131214;27;20399;-78
2022/02/14 04:14:18;;;;;;;0.00;0.00;;;;;17.20;100189.00;;;;5129716;27;20429;-78
2022/02/14 04:16:47;;;;;;;0.00;0.00;;;;;17.10;100184.00;;;;5130318;27;20458;-77
2022/02/14 04:19:16;;;;;;;0.00;0.00;;;;;17.00;100185.00;;;;5113224;27;20551;-76
2022/02/14 04:21:46;;;;;;;0.00;0.00;;;;;17.00;100200.00;;;;5130928;27;20654;-76
2022/02/14 04:24:15;;;;;;;0.00;0.00;;;;;17.00;100199.00;;;;5130905;27;20042;-76
2022/02/14 04:26:44;;;;;;;0.00;0.00;;;;;17.00;100178.00;;;;5131205;27;20061;-76
2022/02/14 04:29:14;;;;;;;0.00;0.00;;;;;17.10;100178.00;;;;5129466;27;20050;-79
2022/02/14 04:31:43;;;;;;;0.00;0.00;;;;;17.10;100188.00;;;;5131312;27;20047;-76
2022/02/14 04:34:14;;;;;;;0.00;0.00;;;;;17.00;100189.00;;;;5131162;27;20050;-77
2022/02/14 04:36:43;;;;;;;0.00;0.00;;;;;17.00;100194.00;;;;5130758;27;20045;-77
2022/02/14 04:39:13;;;;;;;0.00;0.00;;;;;16.90;100186.00;;;;5130337;27;20039;-78
2022/02/14 04:41:43;;;;;;;0.00;0.00;;;;;16.80;100182.00;;;;5130971;27;20043;-76
2022/02/14 04:44:13;;;;;;;0.00;0.00;;;;;16.90;100170.00;;;;5130506;27;20039;-76
2022/02/14 04:46:43;;;;;;;0.00;0.00;;;;;16.90;100203.00;;;;5131001;27;20035;-76
2022/02/14 04:49:13;;;;;;;0.00;0.00;;;;;16.90;100175.00;;;;5130363;27;20088;-79
2022/02/14 04:51:43;;;;;;;0.00;0.00;;;;;16.90;100198.00;;;;5128719;27;20522;-76
2022/02/14 04:54:12;;;;;;;0.00;0.00;;;;;16.90;100197.00;;;;5130349;27;20047;-76
2022/02/14 04:56:41;;;;;;;0.00;0.00;;;;;16.80;100185.00;;;;5128177;27;20039;-76
2022/02/14 04:59:14;;;;;;;0.00;0.00;;;;;16.90;100190.00;;;;5129825;27;20043;-78
2022/02/14 05:01:44;;;;;;;0.00;0.00;;;;;16.90;100187.00;;;;5129923;27;20047;-76
2022/02/14 05:04:14;;;;;;;0.00;0.00;;;;;16.80;100183.00;;;;5129882;27;20039;-76
2022/02/14 05:06:44;;;;;;;0.00;0.00;;;;;16.90;100182.00;;;;5128324;27;20042;-78
2022/02/14 05:09:13;;;;;;;0.00;0.00;;;;;16.90;100188.00;;;;5129562;27;20545;-78
2022/02/14 05:11:43;;;;;;;0.00;0.00;;;;;16.90;100181.00;;;;5130343;27;20047;-77
2022/02/14 05:14:13;;;;;;;0.00;0.00;;;;;16.80;100186.00;;;;5130575;27;20050;-77
2022/02/14 05:16:42;;;;;;;0.00;0.00;;;;;16.80;100179.00;;;;5128615;27;20494;-78
2022/02/14 05:19:12;;;;;;;0.00;0.00;;;;;16.90;100186.00;;;;5130146;27;20741;-78
2022/02/14 05:21:41;;;;;;;0.00;0.00;;;;;16.90;100173.00;;;;5130013;27;20035;-77
2022/02/14 05:24:11;;;;;;;0.00;0.00;;;;;17.10;100179.00;;;;5129545;27;20170;-77
2022/02/14 05:26:41;;;;;;;0.00;0.00;;;;;17.20;100161.00;;;;5129721;27;21111;-75
2022/02/14 05:29:11;;;;;;;0.00;0.00;;;;;17.30;100168.00;;;;5130014;27;20066;-78
2022/02/14 05:31:40;;;;;;;0.00;0.00;;;;;17.50;100173.00;;;;5129753;27;20085;-75
2022/02/14 05:34:11;;;;;;;0.00;0.00;;;;;17.60;100179.00;;;;5129330;27;20043;-78
2022/02/14 05:36:41;;;;;;;0.00;0.00;;;;;17.70;100168.00;;;;5129454;27;20050;-77
2022/02/14 05:39:13;;;;;;;0.00;0.00;;;;;17.80;100149.00;;;;5127816;27;20070;-76
2022/02/14 05:41:42;;;;;;;0.00;0.00;;;;;17.90;100152.00;;;;5129167;27;20067;-77
2022/02/14 05:44:14;;;;;;;0.00;0.00;;;;;18.10;100162.00;;;;5128718;27;20043;-79
2022/02/14 05:46:43;;;;;;;0.00;0.00;;;;;18.20;100148.00;;;;5129210;27;20043;-76
2022/02/14 05:49:15;;;;;;;0.00;0.00;;;;;18.30;100155.00;;;;5129835;27;20042;-77
2022/02/14 05:51:45;;;;;;;0.17;0.13;;;;;18.30;100170.00;;;;5129199;27;20379;-78
2022/02/14 05:54:17;;;;;;;0.00;0.00;;;;;18.40;100150.00;;;;5127580;27;20091;-77
2022/02/14 05:56:46;;;;;;;0.00;0.00;;;;;18.50;100160.00;;;;5128692;27;20487;-77
2022/02/14 05:59:18;;;;;;;2.50;0.90;;;;;18.50;100167.00;;;;5127591;27;20051;-75
2022/02/14 06:01:48;;;;;;;0.00;0.00;;;;;18.60;100143.00;;;;5128675;27;20444;-76
2022/02/14 06:04:20;;;;;;;2.15;1.10;;;;;18.60;100167.00;;;;5127564;27;20051;-78
2022/02/14 06:06:50;;;;;;;0.00;0.00;;;;;18.60;100160.00;;;;5128231;27;20043;-78
2022/02/14 06:09:22;;;;;;;0.00;0.00;;;;;18.70;100144.00;;;;5128682;27;20050;-77
2022/02/14 06:11:51;;;;;;;0.00;0.00;;;;;18.70;100164.00;;;;5126586;27;20502;-75
2022/02/14 06:14:20;;;;;;;0.00;0.00;;;;;18.70;100146.00;;;;5111367;27;20116;-77
2022/02/14 06:16:50;;;;;;;0.00;0.00;;;;;18.80;100147.00;;;;5129059;27;20040;-79
2022/02/14 06:19:23;;;;;;;3.58;0.90;;;;;18.90;100154.00;;;;5110409;27;20047;-78
2022/02/14 06:21:54;;;;;;;0.00;0.00;;;;;18.90;100135.00;;;;5128088;27;20474;-77
2022/02/14 06:24:23;;;;;;;0.00;0.00;;;;;18.80;100158.00;;;;5128144;27;20084;-78
2022/02/14 06:26:53;;;;;;;0.00;0.00;;;;;18.80;100153.00;;;;5128188;27;20565;-77
2022/02/14 06:29:22;;;;;;;0.00;0.00;;;;;18.80;100145.00;;;;5128591;27;20447;-74
2022/02/14 06:31:52;;;;;;;0.00;0.00;;;;;18.80;100150.00;;;;5127755;27;20128;-78
2022/02/14 06:34:22;;;;;;;37.90;34.25;;;;;18.90;100161.00;;;;5126967;27;20045;-76
2022/02/14 06:36:51;;;;;;;45.90;42.72;;;;;18.90;100149.00;;;;5127384;27;20039;-78
2022/02/14 06:39:21;;;;;;;174.88;157.68;;;;;18.90;100161.00;;;;5128156;27;20409;-78
2022/02/14 06:41:51;;;;;;;167.20;147.03;;;;;18.90;100161.00;;;;5128542;27;20039;-77
2022/02/14 06:44:21;;;;;;;0.00;0.00;;;;;18.90;100150.00;;;;5110062;27;20577;-75
2022/02/14 06:46:53;;;;;;;0.00;0.00;;;;;18.80;100152.00;;;;5126631;27;20043;-78
2022/02/14 06:49:22;;;;;;;22.05;20.30;;;;;18.60;100164.00;;;;5126316;27;20031;-79
2022/02/14 06:51:52;;;;;;;136.63;126.07;;;;;18.50;100140.00;;;;5126066;27;20134;-76
2022/02/14 06:54:22;;;;;;;0.00;0.00;;;;;18.40;100153.00;;;;5128034;27;20422;-77
2022/02/14 06:56:53;;;;;;;90.32;83.97;;;;;18.40;100170.00;;;;5127939;27;20112;-76
2022/02/14 06:59:23;;;;;;;0.00;0.00;;;;;18.50;100163.00;;;;5127314;27;20520;-78
2022/02/14 07:01:53;;;;;;;72.25;65.40;;;;;18.60;100173.00;;;;5127941;27;20747;-76
2022/02/14 07:04:23;;;;;;;0.00;0.00;;;;;18.70;100148.00;;;;5127518;27;20040;-78
2022/02/14 07:06:52;;;;;;;0.00;0.00;;;;;18.70;100156.00;;;;5127726;27;20779;-77
2022/02/14 07:09:22;;;;;;;0.00;0.00;;;;;18.80;100157.00;;;;5126575;27;20043;-78
2022/02/14 07:11:51;;;;;;;0.00;0.00;;;;;18.80;100149.00;;;;5126936;27;20047;-77
2022/02/14 07:14:21;;;;;;;0.00;0.00;;;;;18.90;100142.00;;;;5127203;27;20039;-75
2022/02/14 07:16:50;;;;;;;0.00;0.00;;;;;18.90;100147.00;;;;5127212;27;20045;-75
2022/02/14 07:19:20;;;;;;;0.00;0.00;;;;;18.90;100155.00;;;;5125675;27;20062;-79
2022/02/14 07:21:49;;;;;;;90.05;83.22;;;;;18.90;100157.00;;;;5127514;27;20050;-78
2022/02/14 07:24:18;;;;;;;0.00;0.00;;;;;19.00;100158.00;;;;5125648;27;20059;-76
2022/02/14 07:26:48;;;;;;;0.00;0.00;;;;;18.90;100141.00;;;;5126976;27;20050;-76
2022/02/14 07:29:17;;;;;;;0.00;0.00;;;;;18.90;100157.00;;;;5127187;27;20043;-75
2022/02/14 07:31:46;;;;;;;0.00;0.00;;;;;18.90;100151.00;;;;5127437;27;20050;-78
2022/02/14 07:34:17;;;;;;;0.00;0.00;;;;;18.90;100167.00;;;;5125650;28;20092;-76
2022/02/14 07:36:47;;;;;;;0.00;0.00;;;;;18.80;100151.00;;;;5127566;27;20448;-79
2022/02/14 07:39:17;;;;;;;0.00;0.00;;;;;18.80;100187.00;;;;5127792;27;20053;-76
2022/02/14 07:41:48;;;;;;;0.00;0.00;;;;;18.80;100161.00;;;;5127766;27;20108;-77
2022/02/14 07:44:18;;;;;;;0.00;0.00;;;;;18.80;100175.00;;;;5126616;27;20511;-75
2022/02/14 07:46:51;;;;;;;0.00;0.00;;;;;18.80;100173.00;;;;5126875;27;20498;-76
2022/02/14 07:49:22;;;;;;;0.00;0.00;;;;;18.80;100179.00;;;;5127246;28;20043;-78
2022/02/14 07:51:52;;;;;;;0.00;0.00;;;;;18.80;100178.00;;;;5126461;27;20097;-77
2022/02/14 07:54:22;;;;;;;0.00;0.00;;;;;18.80;100176.00;;;;5125655;28;20055;-79
2022/02/14 07:56:52;;;;;;;0.00;0.00;;;;;18.80;100188.00;;;;5125697;28;20047;-76
2022/02/14 07:59:22;;;;;;;0.00;0.00;;;;;18.80;100185.00;;;;5129132;27;20129;-76
2022/02/14 08:01:52;;;;;;;0.00;0.00;;;;;18.80;100204.00;;;;5125718;28;20047;-76
2022/02/14 08:04:22;;;;;;;0.00;0.00;;;;;18.80;100190.00;;;;5125380;28;20104;-76
2022/02/14 08:06:51;;;;;;;0.00;0.00;;;;;18.80;100206.00;;;;5126258;27;20058;-77
2022/02/14 08:09:21;;;;;;;0.00;0.00;;;;;18.80;100193.00;;;;5125644;28;20040;-78
2022/02/14 08:11:50;;;;;;;0.00;0.00;;;;;18.80;100208.00;;;;5126132;27;20035;-78
2022/02/14 08:14:22;;;;;;;0.00;0.00;;;;;18.80;100207.00;;;;5124517;28;20051;-77
2022/02/14 08:16:51;;;;;;;0.00;0.00;;;;;18.80;100210.00;;;;5128646;27;20031;-75
2022/02/14 08:19:21;;;;;;;0.00;0.00;;;;;18.90;100216.00;;;;5131311;28;20047;-76
2022/02/14 08:21:50;;;;;;;0.00;0.00;;;;;18.90;100202.00;;;;5131546;27;20047;-73
2022/02/14 08:24:20;;;;;;;0.00;0.00;;;;;19.00;100207.00;;;;5128849;28;20043;-77
2022/02/14 08:26:50;;;;;;;0.00;0.00;;;;;19.00;100228.00;;;;5128654;27;20044;-76
2022/02/14 08:29:20;;;;;;;0.00;0.00;;;;;19.00;100218.00;;;;5128629;27;20093;-74
2022/02/14 08:31:49;;;;;;;0.00;0.00;;;;;19.00;100227.00;;;;5131579;27;20696;-74
2022/02/14 08:34:18;;;;;;;0.00;0.00;;;;;19.00;100218.00;;;;5130928;27;20042;-79
2022/02/14 08:36:48;;;;;;;0.00;0.00;;;;;19.00;100213.00;;;;5129922;27;20088;-76
2022/02/14 08:39:18;;;;;;;0.00;0.00;;;;;18.90;100238.00;;;;5127917;27;20421;-76
2022/02/14 08:41:47;;;;;;;0.00;0.00;;;;;18.80;100233.00;;;;5130349;27;20100;-79
2022/02/14 08:44:17;;;;;;;0.00;0.00;;;;;18.80;100229.00;;;;5129904;27;20512;-77
2022/02/14 08:46:46;;;;;;;0.00;0.00;;;;;18.80;100226.00;;;;5130615;27;20039;-78
2022/02/14 08:49:15;;;;;;;11.02;10.25;;;;;18.70;100229.00;;;;5130205;27;20039;-80
2022/02/14 08:51:45;;;;;;;0.17;0.17;;;;;18.70;100251.00;;;;5128452;27;20479;-80
2022/02/14 08:54:14;;;;;;;0.28;0.08;;;;;18.60;100228.00;;;;5129760;27;20414;-75
2022/02/14 08:56:43;;;;;;;0.00;0.00;;;;;18.50;100230.00;;;;5128347;27;20054;-78
2022/02/14 08:59:19;;;;;;;0.00;0.00;;;;;18.40;100253.00;;;;5129646;27;20043;-76
2022/02/14 09:01:49;;;;;;;0.00;0.00;;;;;18.40;100249.00;;;;5129847;27;20051;-80
2022/02/14 09:04:19;;;;;;;0.00;0.00;;;;;18.50;100247.00;;;;5129964;27;20044;-77
2022/02/14 09:06:49;;;;;;;0.10;0.10;;;;;18.60;100253.00;;;;5128255;27;20058;-77
2022/02/14 09:09:31;;;;;;;0.00;0.00;;;;;18.60;100272.00;;;;5128494;27;20053;-80
2022/02/14 09:12:00;;;;;;;0.00;0.00;;;;;18.60;100280.00;;;;5129537;27;20039;-75
2022/02/14 09:14:32;;;;;;;0.00;0.00;;;;;18.60;100276.00;;;;5129882;27;20065;-79
2022/02/14 09:17:02;;;;;;;0.00;0.00;;;;;18.50;100278.00;;;;5129774;27;20050;-76
2022/02/14 09:19:34;;;;;;;2.45;0.55;;;;;18.40;100278.00;;;;5128766;27;21063;-76
2022/02/14 09:22:04;;;;;;;0.10;0.10;;;;;18.50;100299.00;;;;5128720;27;20448;-79
2022/02/14 09:24:34;;;;;;;0.00;0.00;;;;;18.50;100283.00;;;;5129335;27;20050;-77
2022/02/14 09:27:04;;;;;;;0.00;0.00;;;;;18.50;100292.00;;;;5129014;27;20032;-78
2022/02/14 09:29:33;;;;;;;0.00;0.00;;;;;18.40;100286.00;;;;5128947;27;20043;-76
2022/02/14 09:32:03;;;;;;;0.00;0.00;;;;;18.40;100310.00;;;;5128800;27;20595;-79
2022/02/14 09:34:32;;;;;;;0.00;0.00;;;;;18.60;100306.00;;;;5127833;27;20047;-78
2022/02/14 09:37:02;;;;;;;0.00;0.00;;;;;18.70;100317.00;;;;5128916;27;20043;-76
2022/02/14 09:39:33;;;;;;;0.00;0.00;;;;;18.80;100325.00;;;;5129733;27;21053;-80
2022/02/14 09:42:05;;;;;;;0.00;0.00;;;;;18.90;100313.00;;;;5128984;27;20512;-76
2022/02/14 09:44:36;;;;;;;0.00;0.00;;;;;19.20;100320.00;;;;5129708;27;20066;-77
2022/02/14 09:47:06;;;;;;;0.00;0.00;;;;;19.30;100325.00;;;;5128462;27;20043;-79
2022/02/14 09:49:38;;;;;;;0.00;0.00;;;;;19.50;100314.00;;;;5129380;27;20409;-80
2022/02/14 09:52:07;;;;;;;0.05;0.05;;;;;20.20;100303.00;;;;5129502;27;20031;-76
2022/02/14 09:54:38;;;;;;;0.43;0.43;;;;;20.50;100322.00;;;;5110990;27;20506;-76
2022/02/14 09:57:09;;;;;;;0.20;0.20;;;;;20.30;100321.00;;;;5126828;27;20118;-80
2022/02/14 09:59:41;;;;;;;0.00;0.00;;;;;20.30;100330.00;;;;5128588;27;20513;-77
2022/02/14 10:02:25;;;;;;;0.00;0.00;;;;;20.10;100325.00;;;;5129326;27;20051;-79
2022/02/14 10:05:06;;;;;;;0.55;0.55;;;;;19.70;100337.00;;;;5110704;27;20394;-79
2022/02/14 10:07:53;;;;;;;0.00;0.00;;;;;19.80;100348.00;;;;5129155;27;20074;-78
2022/02/14 10:10:25;;;;;;;0.00;0.00;;;;;20.10;100346.00;;;;5128360;27;20117;-79
2022/02/14 10:12:59;;;;;;;0.98;0.80;;;;;20.10;100337.00;;;;5129261;27;20478;-80
2022/02/14 10:15:30;;;;;;;0.00;0.00;;;;;20.00;100341.00;;;;5128831;27;20035;-77
2022/02/14 10:17:59;;;;;;;0.00;0.00;;;;;20.20;100347.00;;;;5129080;27;20042;-79
2022/02/14 10:20:31;;;;;;;0.13;0.05;;;;;19.80;100375.00;;;;5128514;27;20065;-80
2022/02/14 10:23:08;;;;;;;0.00;0.00;;;;;19.50;100379.00;;;;5128121;27;20039;-78
2022/02/14 10:25:43;;;;;;;0.40;0.38;;;;;19.30;100382.00;;;;5128343;27;20039;-79
2022/02/14 10:28:17;;;;;;;0.15;0.15;;;;;19.20;100389.00;;;;5128156;27;20035;-77
2022/02/14 10:31:07;;;;;;;0.00;0.00;;;;;19.30;100375.00;;;;5128768;27;20039;-79
2022/02/14 10:33:49;;;;;;;0.00;0.00;;;;;19.40;100388.00;;;;5127698;27;20071;-79
2022/02/14 10:36:28;;;;;;;0.20;0.20;;;;;19.70;100390.00;;;;5126655;27;20122;-77
2022/02/14 10:39:22;;;;;;;0.52;0.52;;;;;20.00;100384.00;;;;5128500;27;20095;-78
2022/02/14 10:42:06;;;;;;;0.00;0.00;;;;;20.00;100372.00;;;;5126382;27;20517;-78
2022/02/14 10:47:33;;;;;;;0.00;0.00;;;;;20.60;100378.00;;;;5128291;27;20039;-77
2022/02/14 10:50:07;;;;;;;1.65;1.38;;;;;21.30;100376.00;;;;5128203;27;20046;-77
2022/02/14 10:52:43;;;;;;;0.10;0.10;;;;;21.50;100364.00;;;;5126678;27;20071;-75
2022/02/14 10:55:19;;;;;;;0.45;0.45;;;;;21.90;100383.00;;;;5127133;27;20345;-79
2022/02/14 10:57:50;;;;;;;0.08;0.08;;;;;21.80;100363.00;;;;5128424;27;20046;-78
2022/02/14 11:00:25;;;;;;;0.03;0.03;;;;;23.50;100362.00;;;;5128067;27;20490;-79
2022/02/14 11:02:58;;;;;;;0.00;0.00;;;;;27.50;100191.00;;;;5128692;27;20042;-76
2022/02/14 11:05:29;;;;;;;0.32;0.32;;;;;29.60;100196.00;;;;5129859;27;20035;-78
2022/02/14 11:08:00;;;;;;;0.00;0.00;;;;;28.50;100200.00;;;;5131071;27;20525;-76
2022/02/14 11:10:31;;;;;;;0.55;0.55;;;;;28.40;100314.00;;;;5131064;27;20050;-80
2022/02/14 11:13:02;;;;;;;0.00;0.00;;;;;29.60;100151.00;;;;5132819;27;20068;-76
2022/02/14 11:15:35;;;;;;;0.22;0.22;;;;;30.80;100251.00;;;;5131010;27;20125;-79
2022/02/14 11:18:38;;;;;;;0.00;0.00;;;;;29.80;100350.00;;;;5134353;27;20421;-80
2022/02/14 11:21:08;;;;;;;0.30;0.30;;;;;29.70;100142.00;;;;5116102;27;20031;-78
2022/02/14 11:23:50;;;;;;;0.00;0.00;;;;;30.90;100117.00;;;;5143885;27;20063;-78
2022/02/14 11:26:36;;;;;;;0.00;0.00;;;;;31.40;100145.00;;;;5141950;27;20031;-78
2022/02/14 11:29:47;;;;;;;0.00;0.00;;;;;29.70;100209.00;;;;5132997;27;20429;-77
2022/02/14 11:32:19;;;;;;;0.63;0.25;;;;;25.50;100413.00;;;;5119094;27;20096;-80
2022/02/14 11:35:00;;;;;;;0.00;0.00;;;;;22.90;100445.00;;;;5129421;27;20047;-79
2022/02/14 11:37:54;;;;;;;0.13;0.13;;;;;22.40;100423.00;;;;5128871;28;20070;-79
2022/02/14 11:40:27;;;;;;;0.03;0.00;;;;;28.20;100165.00;;;;5125112;28;20161;-76
2022/02/14 11:43:15;;;;;;;0.00;0.00;;;;;31.40;100160.00;;;;5124469;28;20050;-77
2022/02/14 11:46:05;;;;;;;0.00;0.00;;;;;32.30;100147.00;;;;5122884;28;20054;-76
2022/02/14 11:48:35;;;;;;;0.30;0.30;;;;;33.10;100174.00;;;;5127196;28;20107;-81
2022/02/14 11:51:09;;;;;;;0.00;0.00;;;;;33.50;100169.00;;;;5128045;27;20391;-79
2022/02/14 11:53:47;;;;;;;0.00;0.00;;;;;32.80;100177.00;;;;5126978;28;20027;-80
2022/02/14 11:56:24;;;;;;;0.00;0.00;;;;;33.00;100187.00;;;;5128725;27;20081;-78
2022/02/14 11:59:03;;;;;;;0.17;0.17;;;;;32.70;100198.00;;;;5127192;28;20047;-82
2022/02/14 12:01:59;;;;;;;0.65;0.20;;;;;32.00;100181.00;;;;5128077;27;20386;-77
2022/02/14 12:04:38;;;;;;;0.05;0.05;;;;;30.20;100193.00;;;;5126568;27;20150;-81
2022/02/14 12:07:26;;;;;;;0.08;0.08;;;;;28.20;100420.00;;;;5129781;27;20055;-76
2022/02/14 12:09:59;;;;;;;0.73;0.30;;;;;24.30;100465.00;;;;5131314;27;20054;-77
2022/02/14 12:13:03;;;;;;;0.35;0.35;;;;;26.40;100314.00;;;;5131055;27;20722;-78
2022/02/14 12:21:12;;;;;;;0.00;0.00;;;;;27.30;100379.00;;;;5130941;27;20089;-78
2022/02/14 12:24:18;;;;;;;0.10;0.10;;;;;26.80;100372.00;;;;5131517;27;20063;-79
2022/02/14 12:27:00;;;;;;;0.17;0.10;;;;;27.10;100377.00;;;;5130865;27;20117;-79
2022/02/14 12:29:39;;;;;;;0.00;0.00;;;;;27.50;100385.00;;;;5131107;27;20540;-76
2022/02/14 12:32:16;;;;;;;0.00;0.00;;;;;27.70;100382.00;;;;5131183;27;20134;-80
2022/02/14 12:34:50;;;;;;;0.20;0.15;;;;;27.30;100356.00;;;;5130534;27;20069;-80
2022/02/14 12:37:21;;;;;;;0.00;0.00;;;;;27.60;100369.00;;;;5130909;27;20479;-81
2022/02/14 12:39:53;;;;;;;0.00;0.00;;;;;27.50;100390.00;;;;5130689;27;20050;-78
2022/02/14 12:42:25;;;;;;;0.03;0.03;;;;;28.30;100371.00;;;;5130533;27;20047;-80